Palm Beach International Airport
KPBI : now visible

Airfield :











YOU CAN JOIN US ON...

 
LOGIN :

Register | Disclaimer

   EN    FR    IT 

 









Legend :    VFR   Marginal VFR   IFR   Intensive IFR   Very Intensive IFR
Visi :
Ceiling :
>= 8 km
>= 3000ft
5 to 8 km
1000 to 3000 ft
1500m to 5 km
500 to 1000 ft
800 to 1500m
200 to 500 ft
< 800m
< 200 ft
Symbols :   Thunderstorms  Fog  Heavy snow  Heavy precipitations  Wind > 20 kt






- Airport Elevation : 19 ft
- IATA code : PBI


KPBI - Palm Beach International

CURRENT METAR :
  • 142053Z 26013G19KT 10SM FEW035 BKN095 27/19 A2983 RMK AO2 SLP100 TCU DSNT E-SE T02720189 55001

EXPIRED METARs :
  • 141953Z 25011KT 10SM FEW030 SCT075 BKN110 27/19 A2982 RMK AO2 SLP096 T02720189
  • 141853Z 27014KT 10SM FEW030TCU SCT055 SCT080 BKN250 27/19 A2982 RMK AO2 SLP098 TCU E-SE T02720189

TAF KPBI
Valid from the 14 at 19:00 until the 15 at 18:00 UTC


141904Z 1419/1518 29012G22KT P6SM FEW030 SCT250
FM150000 33007KT P6SM FEW050 SCT250
FM151300 06008KT P6SM FEW040 FEW250



MET'MAP, your aeronautical weather chart ! - Copyright ORBIFLY December 2007 - Disclaimer

ORBIFLY MET'MAP TEAM :

Programming & Development : Alexandra Zaïnal
Concept & original design : Baudouin d'Aumeries
Assistance for programming : Marc-Olivier Méhu
Technical & hardware support : Manuel Goepfert

Contact : metmap@orbifly.com




SOURCES & CREDITS :

   NOAA       Earth
Advisory